createdAt,value
2018-01-26T00:00:04.382Z,101045.09
2018-01-26T00:02:30.784Z,101040.39
2018-01-26T00:04:57.217Z,101037.80
2018-01-26T00:07:23.699Z,101039.48
2018-01-26T00:09:50.066Z,101035.20
2018-01-26T00:12:16.598Z,101035.73
2018-01-26T00:14:43.051Z,101035.80
2018-01-26T00:17:09.476Z,101036.80
2018-01-26T00:19:36.097Z,101035.82
2018-01-26T00:22:02.566Z,101029.81
2018-01-26T00:24:29.042Z,101024.75
2018-01-26T00:26:55.571Z,101026.29
2018-01-26T00:29:21.945Z,101026.27
2018-01-26T00:31:48.417Z,101027.19
2018-01-26T00:34:14.859Z,101032.83
2018-01-26T00:36:41.230Z,101032.88
2018-01-26T00:39:07.629Z,101032.52
2018-01-26T00:41:34.094Z,101030.20
2018-01-26T00:44:00.562Z,101032.15
2018-01-26T00:46:26.932Z,101028.86
2018-01-26T00:48:53.526Z,101030.03
2018-01-26T00:51:20.085Z,101029.55
2018-01-26T00:53:46.565Z,101025.78
2018-01-26T00:56:13.055Z,101021.23
2018-01-26T00:58:39.529Z,101017.83
2018-01-26T01:01:05.942Z,101021.31
2018-01-26T01:03:32.348Z,101011.06
2018-01-26T01:05:58.788Z,101005.61
2018-01-26T01:08:25.181Z,101013.37
2018-01-26T01:10:51.597Z,101004.83
2018-01-26T01:13:18.053Z,101011.97
2018-01-26T01:15:44.469Z,100999.12
2018-01-26T01:18:10.884Z,100992.58
2018-01-26T01:20:37.519Z,100992.80
2018-01-26T01:23:04.046Z,100999.81
2018-01-26T01:25:36.376Z,100999.30
2018-01-26T01:28:02.786Z,100994.70
2018-01-26T01:30:29.217Z,100996.22
2018-01-26T01:33:01.708Z,100997.42
2018-01-26T01:35:28.193Z,100989.31
2018-01-26T01:37:54.669Z,100979.05
2018-01-26T01:40:27.100Z,100985.14
2018-01-26T01:42:53.573Z,100981.19
2018-01-26T01:45:25.957Z,100966.61
2018-01-26T01:47:58.406Z,100969.91
2018-01-26T01:50:30.788Z,100966.45
2018-01-26T01:52:57.205Z,100963.62
2018-01-26T01:55:23.657Z,100960.97
2018-01-26T01:58:02.192Z,100965.38
2018-01-26T02:00:28.687Z,100965.99
2018-01-26T02:02:55.119Z,100970.04
2018-01-26T02:05:27.516Z,100968.80
2018-01-26T02:07:53.970Z,100967.00
2018-01-26T02:10:20.404Z,100969.27
2018-01-26T02:12:46.906Z,100971.38
2018-01-26T02:15:13.290Z,100966.58
2018-01-26T02:17:51.829Z,100964.91
2018-01-26T02:20:24.210Z,100965.58
2018-01-26T02:22:56.665Z,100967.33
2018-01-26T02:25:35.069Z,100964.99
2018-01-26T02:28:01.537Z,100966.92
2018-01-26T02:30:28.016Z,100966.36
2018-01-26T02:32:54.397Z,100965.75
2018-01-26T02:35:20.811Z,100970.95
2018-01-26T02:37:53.258Z,100971.86
2018-01-26T02:40:25.781Z,100976.97
2018-01-26T02:42:52.397Z,100972.74
2018-01-26T02:45:24.801Z,100970.27
2018-01-26T02:47:57.185Z,100974.75
2018-01-26T02:50:23.608Z,100970.32
2018-01-26T02:52:50.033Z,100970.04
2018-01-26T02:55:22.649Z,100967.20
2018-01-26T02:57:49.140Z,100959.98
2018-01-26T03:00:15.617Z,100963.72
2018-01-26T03:02:48.229Z,100960.38
2018-01-26T03:05:14.681Z,100964.06
2018-01-26T03:07:53.069Z,100953.34
2018-01-26T03:10:25.534Z,100961.82
2018-01-26T03:12:58.189Z,100963.52
2018-01-26T03:15:24.557Z,100962.80
2018-01-26T03:18:03.241Z,100962.27
2018-01-26T03:20:41.745Z,100968.87
2018-01-26T03:23:08.313Z,100959.70
2018-01-26T03:25:34.782Z,100962.66
2018-01-26T03:28:07.220Z,100961.42
2018-01-26T03:30:39.513Z,100963.39
2018-01-26T03:33:11.858Z,100959.02
2018-01-26T03:35:38.237Z,100965.06
2018-01-26T03:38:10.825Z,100965.21
2018-01-26T03:40:43.391Z,100963.48
2018-01-26T03:43:15.836Z,100962.69
2018-01-26T03:45:48.140Z,100967.18
2018-01-26T03:48:20.545Z,100963.81
2018-01-26T03:50:47.037Z,100967.80
2018-01-26T03:53:25.629Z,100971.17
2018-01-26T03:55:52.241Z,100967.08
2018-01-26T03:58:18.688Z,100963.19
2018-01-26T04:00:45.118Z,100968.31
2018-01-26T04:03:11.557Z,100956.84
2018-01-26T04:05:37.965Z,100963.57
2018-01-26T04:08:16.321Z,100963.02
2018-01-26T04:10:48.664Z,100963.35
2018-01-26T04:13:21.140Z,100962.83
2018-01-26T04:15:47.623Z,100968.13
2018-01-26T04:18:14.085Z,100961.84
2018-01-26T04:20:46.633Z,100965.65
2018-01-26T04:23:25.185Z,100967.45
2018-01-26T04:25:58.017Z,100969.84
2018-01-26T04:28:24.617Z,100967.91
2018-01-26T04:30:51.085Z,100967.71
2018-01-26T04:33:17.627Z,100962.75
2018-01-26T04:35:50.153Z,100961.71
2018-01-26T04:38:16.697Z,100959.30
2018-01-26T04:40:43.186Z,100970.69
2018-01-26T04:43:09.652Z,100976.09
2018-01-26T04:45:48.316Z,100977.62
2018-01-26T04:48:14.750Z,100976.48
2018-01-26T04:50:53.174Z,100981.86
2018-01-26T04:53:25.673Z,100982.25
2018-01-26T04:55:52.148Z,100982.31
2018-01-26T04:58:24.525Z,100981.70
2018-01-26T05:00:57.222Z,100984.72
2018-01-26T05:03:23.684Z,100987.31
2018-01-26T05:06:02.253Z,100984.27
2018-01-26T05:08:34.797Z,100991.30
2018-01-26T05:11:01.274Z,100989.72
2018-01-26T05:13:33.891Z,100991.77
2018-01-26T05:16:06.193Z,100996.11
2018-01-26T05:18:32.699Z,100994.34
2018-01-26T05:21:17.393Z,100987.23
2018-01-26T05:23:49.716Z,100997.19
2018-01-26T05:26:22.261Z,101004.40
2018-01-26T05:28:54.809Z,101004.48
2018-01-26T05:31:33.384Z,101005.53
2018-01-26T05:33:59.820Z,100999.17
2018-01-26T05:36:32.208Z,101005.52
2018-01-26T05:38:58.664Z,101007.70
2018-01-26T05:41:31.065Z,101006.92
2018-01-26T05:44:03.443Z,101007.48
2018-01-26T05:46:29.890Z,101009.72
2018-01-26T05:49:02.349Z,101003.97
2018-01-26T05:51:40.657Z,101006.01
2018-01-26T05:54:13.089Z,101008.06
2018-01-26T05:56:39.613Z,100999.69
2018-01-26T05:59:11.999Z,101008.34
2018-01-26T06:01:44.781Z,101004.34
2018-01-26T06:04:11.141Z,101008.27
2018-01-26T06:06:43.800Z,101008.23
2018-01-26T06:09:16.105Z,101010.58
2018-01-26T06:11:48.653Z,101007.85
2018-01-26T06:14:27.201Z,101009.44
2018-01-26T06:16:54.329Z,101005.95
2018-01-26T06:19:26.929Z,101008.50
2018-01-26T06:21:53.561Z,101013.57
2018-01-26T06:24:19.987Z,101009.05
2018-01-26T06:26:52.536Z,101013.13
2018-01-26T06:29:19.067Z,101012.06
2018-01-26T06:31:51.610Z,101009.05
2018-01-26T06:34:17.972Z,101008.59
2018-01-26T06:36:50.438Z,101013.03
2018-01-26T06:39:29.056Z,101012.47
2018-01-26T06:41:55.525Z,101013.54
2018-01-26T06:44:28.010Z,101014.62
2018-01-26T06:47:00.614Z,101013.52
2018-01-26T06:49:27.237Z,101008.86
2018-01-26T06:51:53.713Z,101006.31
2018-01-26T06:54:20.201Z,101008.12
2018-01-26T06:56:46.626Z,101003.58
2018-01-26T06:59:13.050Z,101001.59
2018-01-26T07:01:51.505Z,101008.72
2018-01-26T07:04:24.041Z,101007.97
2018-01-26T07:06:50.469Z,101007.80
2018-01-26T07:09:29.057Z,101005.20
2018-01-26T07:11:55.488Z,101009.19
2018-01-26T07:14:27.950Z,101014.15
2018-01-26T07:17:00.337Z,101011.11
2018-01-26T07:19:26.789Z,101017.49
2018-01-26T07:21:59.270Z,101008.20
2018-01-26T07:24:25.732Z,101007.25
2018-01-26T07:26:52.134Z,101007.88
2018-01-26T07:29:24.627Z,101007.27
2018-01-26T07:31:51.095Z,101009.23
2018-01-26T07:34:23.495Z,101009.94
2018-01-26T07:37:02.216Z,101003.06
2018-01-26T07:39:28.609Z,101008.53
2018-01-26T07:41:55.018Z,101003.94
2018-01-26T07:44:27.490Z,101010.09
2018-01-26T07:46:54.037Z,101011.70
2018-01-26T07:49:27.139Z,101007.20
2018-01-26T07:51:59.686Z,101012.02
2018-01-26T07:54:32.185Z,101006.45
2018-01-26T07:56:58.645Z,101000.53
2018-01-26T07:59:31.273Z,100997.55
2018-01-26T08:01:57.669Z,100997.31
2018-01-26T08:04:30.281Z,100998.55
2018-01-26T08:06:56.876Z,100996.33
2018-01-26T08:09:29.539Z,100995.22
2018-01-26T08:12:02.051Z,101003.95
2018-01-26T08:14:34.402Z,101006.31
2018-01-26T08:17:00.833Z,101000.38
2018-01-26T08:19:39.502Z,101000.02
2018-01-26T08:22:11.969Z,100998.88
2018-01-26T08:24:50.417Z,100998.20
2018-01-26T08:27:16.837Z,101001.34
2018-01-26T08:29:43.290Z,101003.27
2018-01-26T08:32:16.048Z,101006.36
2018-01-26T08:34:54.833Z,101008.60
2018-01-26T08:37:21.301Z,101010.36
2018-01-26T08:39:47.858Z,101012.61
2018-01-26T08:42:14.273Z,101019.96
2018-01-26T08:44:46.759Z,101011.41
2018-01-26T08:47:19.164Z,101011.45
2018-01-26T08:49:45.565Z,101005.38
2018-01-26T08:52:18.174Z,101004.50
2018-01-26T08:54:50.545Z,101001.66
2018-01-26T08:57:16.945Z,101002.48
2018-01-26T08:59:49.385Z,101001.23
2018-01-26T09:02:15.911Z,101001.33
2018-01-26T09:05:00.490Z,100997.06
2018-01-26T09:07:33.044Z,100990.56
2018-01-26T09:09:59.565Z,100991.00
2018-01-26T09:12:37.969Z,100989.31
2018-01-26T09:15:04.486Z,100985.00
2018-01-26T09:17:36.958Z,100979.81
2018-01-26T09:20:03.484Z,100976.77
2018-01-26T09:22:29.913Z,100978.86
2018-01-26T09:25:02.381Z,100975.43
2018-01-26T09:27:28.791Z,100967.69
2018-01-26T09:30:01.335Z,100962.94
2018-01-26T09:32:27.863Z,100960.39
2018-01-26T09:35:00.141Z,100962.10
2018-01-26T09:37:38.743Z,100956.52
2018-01-26T09:40:17.565Z,100955.23
2018-01-26T09:42:50.117Z,100952.20
2018-01-26T09:45:28.701Z,100942.68
2018-01-26T09:47:55.126Z,100947.44
2018-01-26T09:50:21.522Z,100936.17
2018-01-26T09:52:53.993Z,100942.67
2018-01-26T09:55:32.408Z,100935.29
2018-01-26T09:57:58.889Z,100932.28
2018-01-26T10:00:25.229Z,100914.08
2018-01-26T10:02:57.769Z,100918.41
2018-01-26T10:05:24.160Z,100917.55
2018-01-26T10:07:50.709Z,100914.08
2018-01-26T10:10:23.053Z,100914.03
2018-01-26T10:12:49.583Z,100903.66
2018-01-26T10:15:22.250Z,100905.41
2018-01-26T10:17:54.566Z,100898.91
2018-01-26T10:20:27.173Z,100901.45
2018-01-26T10:22:59.698Z,100897.53
2018-01-26T10:25:37.961Z,100892.81
2018-01-26T10:28:16.333Z,100885.39
2018-01-26T10:30:42.709Z,100882.75
2018-01-26T10:33:15.133Z,100881.88
2018-01-26T10:35:41.554Z,100876.66
2018-01-26T10:38:07.933Z,100868.88
2018-01-26T10:40:34.326Z,100873.67
2018-01-26T10:43:00.664Z,100863.68
2018-01-26T10:45:27.244Z,100864.06
2018-01-26T10:47:59.785Z,100867.91
2018-01-26T10:50:26.170Z,100859.73
2018-01-26T10:52:52.545Z,100861.53
2018-01-26T10:55:18.920Z,100852.73
2018-01-26T10:57:45.284Z,100847.45
2018-01-26T11:00:11.516Z,100850.58
2018-01-26T11:02:44.116Z,100842.27
2018-01-26T11:05:10.362Z,100844.81
2018-01-26T11:07:36.591Z,100841.78
2018-01-26T11:10:02.800Z,100845.23
2018-01-26T11:12:28.964Z,100835.69
2018-01-26T11:14:55.173Z,100839.25
2018-01-26T11:17:21.380Z,100823.48
2018-01-26T11:19:47.549Z,100829.65
2018-01-26T11:22:13.772Z,100826.91
2018-01-26T11:24:39.976Z,100826.41
2018-01-26T11:27:06.241Z,100820.50
2018-01-26T11:29:32.460Z,100826.08
2018-01-26T11:31:58.654Z,100821.42
2018-01-26T11:34:24.875Z,100824.02
2018-01-26T11:36:51.045Z,100820.34
2018-01-26T11:39:17.225Z,100821.33
2018-01-26T11:41:43.445Z,100814.80
2018-01-26T11:44:09.604Z,100815.61
2018-01-26T11:46:35.831Z,100814.78
2018-01-26T11:49:02.310Z,100814.31
2018-01-26T11:51:28.489Z,100811.83
2018-01-26T11:53:54.703Z,100814.31
2018-01-26T11:56:21.025Z,100812.93
2018-01-26T11:58:47.177Z,100809.20
2018-01-26T12:01:13.350Z,100805.70
2018-01-26T12:03:39.557Z,100806.24
2018-01-26T12:06:05.734Z,100808.74
2018-01-26T12:08:31.988Z,100803.42
2018-01-26T12:10:58.209Z,100806.31
2018-01-26T12:13:24.377Z,100808.05
2018-01-26T12:15:50.568Z,100802.87
2018-01-26T12:18:16.784Z,100800.73
2018-01-26T12:20:42.973Z,100803.37
2018-01-26T12:23:09.205Z,100799.94
2018-01-26T12:25:35.513Z,100797.23
2018-01-26T12:28:01.736Z,100805.06
2018-01-26T12:30:28.006Z,100797.52
2018-01-26T12:32:54.244Z,100806.52
2018-01-26T12:35:20.405Z,100801.76
2018-01-26T12:37:46.581Z,100801.27
2018-01-26T12:40:12.799Z,100799.25
2018-01-26T12:42:38.967Z,100795.38
2018-01-26T12:45:05.132Z,100794.54
2018-01-26T12:47:31.357Z,100802.31
2018-01-26T12:49:57.521Z,100802.83
2018-01-26T12:52:23.681Z,100799.30
2018-01-26T12:54:49.900Z,100798.51
2018-01-26T12:57:16.090Z,100799.73
2018-01-26T12:59:42.277Z,100804.94
2018-01-26T13:02:08.554Z,100795.80
2018-01-26T13:04:34.837Z,100794.08
2018-01-26T13:07:01.016Z,100788.90
2018-01-26T13:09:27.188Z,100790.09
2018-01-26T13:11:53.416Z,100787.48
2018-01-26T13:14:19.586Z,100784.86
2018-01-26T13:16:45.748Z,100787.03
2018-01-26T13:19:13.581Z,100785.67
2018-01-26T13:21:40.044Z,100790.55
2018-01-26T13:24:06.216Z,100791.84
2018-01-26T13:26:32.432Z,100789.17
2018-01-26T13:28:58.648Z,100795.73
2018-01-26T13:31:24.824Z,100795.27
2018-01-26T13:33:51.013Z,100787.12
2018-01-26T13:36:17.197Z,100792.28
2018-01-26T13:38:43.376Z,100800.50
2018-01-26T13:41:09.611Z,100801.37
2018-01-26T13:43:35.975Z,100797.89
2018-01-26T13:46:02.157Z,100801.83
2018-01-26T13:48:28.332Z,100804.89
2018-01-26T13:50:54.561Z,100797.03
2018-01-26T13:53:20.713Z,100794.43
2018-01-26T13:55:46.881Z,100799.60
2018-01-26T13:58:13.257Z,100803.11
2018-01-26T14:00:39.416Z,100797.50
2018-01-26T14:03:05.608Z,100797.54
2018-01-26T14:05:31.794Z,100798.61
2018-01-26T14:07:58.020Z,100798.47
2018-01-26T14:10:24.181Z,100806.72
2018-01-26T14:12:50.376Z,100807.13
2018-01-26T14:15:16.553Z,100804.47
2018-01-26T14:17:42.708Z,100811.42
2018-01-26T14:20:09.147Z,100812.28
2018-01-26T14:22:35.301Z,100810.55
2018-01-26T14:25:01.469Z,100808.81
2018-01-26T14:27:27.644Z,100809.25
2018-01-26T14:29:53.850Z,100810.14
2018-01-26T14:32:20.028Z,100813.61
2018-01-26T14:34:46.188Z,100814.95
2018-01-26T14:37:12.422Z,100820.17
2018-01-26T14:39:38.662Z,100817.58
2018-01-26T14:42:04.864Z,100818.01
2018-01-26T14:44:31.080Z,100822.39
2018-01-26T14:46:57.345Z,100821.55
2018-01-26T14:49:23.528Z,100817.18
2018-01-26T14:51:49.724Z,100819.38
2018-01-26T14:54:15.881Z,100822.00
2018-01-26T14:56:42.041Z,100824.61
2018-01-26T14:59:08.200Z,100828.59
2018-01-26T15:01:34.580Z,100830.70
2018-01-26T15:04:00.784Z,100831.59
2018-01-26T15:06:26.949Z,100839.88
2018-01-26T15:08:53.140Z,100840.31
2018-01-26T15:11:19.344Z,100840.32
2018-01-26T15:13:45.702Z,100842.52
2018-01-26T15:16:11.922Z,100849.91
2018-01-26T15:18:38.085Z,100849.93
2018-01-26T15:21:04.255Z,100849.54
2018-01-26T15:23:30.565Z,100853.87
2018-01-26T15:25:56.792Z,100855.61
2018-01-26T15:28:23.031Z,100862.16
2018-01-26T15:30:49.269Z,100861.29
2018-01-26T15:33:15.433Z,100860.86
2018-01-26T15:35:41.870Z,100862.17
2018-01-26T15:38:08.024Z,100862.20
2018-01-26T15:40:34.188Z,100874.82
2018-01-26T15:43:00.381Z,100868.74
2018-01-26T15:45:26.540Z,100876.16
2018-01-26T15:47:52.692Z,100867.05
2018-01-26T15:50:18.877Z,100871.39
2018-01-26T15:52:45.061Z,100882.70
2018-01-26T15:55:11.228Z,100881.82
2018-01-26T15:57:37.437Z,100887.48
2018-01-26T16:00:03.632Z,100889.22
2018-01-26T16:02:30.036Z,100885.76
2018-01-26T16:04:56.620Z,100896.62
2018-01-26T16:07:23.077Z,100897.06
2018-01-26T16:09:49.305Z,100904.45
2018-01-26T16:12:15.524Z,100898.82
2018-01-26T16:14:41.718Z,100903.17
2018-01-26T16:17:07.886Z,100902.72
2018-01-26T16:19:34.125Z,100903.62
2018-01-26T16:22:00.339Z,100903.62
2018-01-26T16:24:26.500Z,100903.20
2018-01-26T16:26:52.725Z,100909.70
2018-01-26T16:29:18.888Z,100907.97
2018-01-26T16:31:45.242Z,100911.89
2018-01-26T16:34:11.481Z,100911.02
2018-01-26T16:36:37.667Z,100914.07
2018-01-26T16:39:03.901Z,100915.81
2018-01-26T16:41:30.273Z,100922.33
2018-01-26T16:43:56.433Z,100922.73
2018-01-26T16:46:22.608Z,100924.04
2018-01-26T16:48:48.805Z,100924.47
2018-01-26T16:51:14.969Z,100924.46
2018-01-26T16:53:41.176Z,100923.17
2018-01-26T16:56:07.368Z,100920.56
2018-01-26T16:58:33.577Z,100918.41
2018-01-26T17:00:59.750Z,100925.34
2018-01-26T17:03:26.056Z,100924.46
2018-01-26T17:05:52.224Z,100926.19
2018-01-26T17:08:18.385Z,100929.67
2018-01-26T17:10:44.593Z,100930.94
2018-01-26T17:13:10.772Z,100931.38
2018-01-26T17:15:36.989Z,100938.28
2018-01-26T17:18:03.238Z,100938.30
2018-01-26T17:20:29.408Z,100938.30
2018-01-26T17:22:55.625Z,100942.17
2018-01-26T17:25:21.804Z,100943.91
2018-01-26T17:27:48.040Z,100958.20
2018-01-26T17:30:14.285Z,100954.22
2018-01-26T17:32:40.442Z,100953.34
2018-01-26T17:35:06.648Z,100963.69
2018-01-26T17:37:33.411Z,100967.16
2018-01-26T17:39:59.633Z,100969.71
2018-01-26T17:42:25.836Z,100971.45
2018-01-26T17:44:51.996Z,100977.09
2018-01-26T17:47:18.168Z,100980.52
2018-01-26T17:49:44.393Z,100973.97
2018-01-26T17:52:10.596Z,100982.61
2018-01-26T17:54:36.808Z,100984.78
2018-01-26T17:57:03.097Z,100986.95
2018-01-26T17:59:29.312Z,100992.11
2018-01-26T18:01:55.492Z,100995.95
2018-01-26T18:04:21.721Z,100998.12
2018-01-26T18:06:47.894Z,100996.85
2018-01-26T18:09:14.100Z,101001.18
2018-01-26T18:11:40.305Z,101002.78
2018-01-26T18:14:06.561Z,101010.02
2018-01-26T18:16:32.891Z,101009.09
2018-01-26T18:18:59.073Z,101017.36
2018-01-26T18:21:25.236Z,101020.64
2018-01-26T18:23:51.434Z,101028.03
2018-01-26T18:26:17.592Z,101027.95
2018-01-26T18:28:43.773Z,101027.05
2018-01-26T18:31:09.976Z,101026.04
2018-01-26T18:33:36.152Z,101028.77
2018-01-26T18:36:02.357Z,101032.91
2018-01-26T18:38:28.609Z,101038.27
2018-01-26T18:40:54.776Z,101044.51
2018-01-26T18:43:20.936Z,101038.03
2018-01-26T18:45:47.169Z,101044.89
2018-01-26T18:48:13.324Z,101055.00
2018-01-26T18:50:39.489Z,101056.77
2018-01-26T18:53:05.721Z,101064.16
2018-01-26T18:55:31.893Z,101048.19
2018-01-26T18:57:58.049Z,101047.42
2018-01-26T19:00:24.255Z,101058.38
2018-01-26T19:02:50.425Z,101053.83
2018-01-26T19:05:16.575Z,101060.09
2018-01-26T19:07:42.727Z,101056.88
2018-01-26T19:10:10.569Z,101062.05
2018-01-26T19:12:36.711Z,101064.92
2018-01-26T19:15:02.901Z,101067.59
2018-01-26T19:17:30.689Z,101068.83
2018-01-26T19:19:56.888Z,101075.72
2018-01-26T19:22:23.027Z,101077.04
2018-01-26T19:24:49.235Z,101072.75
2018-01-26T19:27:15.411Z,101079.77
2018-01-26T19:29:41.554Z,101082.75
2018-01-26T19:32:07.851Z,101080.58
2018-01-26T19:34:33.994Z,101077.41
2018-01-26T19:37:00.205Z,101083.09
2018-01-26T19:39:26.403Z,101076.27
2018-01-26T19:41:52.578Z,101078.98
2018-01-26T19:44:18.734Z,101076.90
2018-01-26T19:46:44.932Z,101072.20
2018-01-26T19:49:11.121Z,101075.08
2018-01-26T19:51:37.272Z,101077.41
2018-01-26T19:54:03.483Z,101075.67
2018-01-26T19:56:29.622Z,101079.30
2018-01-26T19:58:55.768Z,101075.58
2018-01-26T20:01:21.965Z,101082.36
2018-01-26T20:03:54.267Z,101076.73
2018-01-26T20:06:46.480Z,101085.36
2018-01-26T20:09:12.570Z,101078.41
2018-01-26T20:11:38.755Z,101079.97
2018-01-26T20:14:05.000Z,101083.05
2018-01-26T20:16:31.211Z,101084.72
2018-01-26T20:18:57.358Z,101087.03
2018-01-26T20:21:24.503Z,101090.80
2018-01-26T20:23:50.658Z,101090.28
2018-01-26T20:26:16.995Z,101098.74
2018-01-26T20:28:43.208Z,101101.09
2018-01-26T20:31:09.383Z,101093.31
2018-01-26T20:33:35.527Z,101093.95
2018-01-26T20:36:01.725Z,101091.67
2018-01-26T20:38:27.968Z,101095.92
2018-01-26T20:40:54.150Z,101096.85
2018-01-26T20:43:20.424Z,101101.70
2018-01-26T20:45:46.567Z,101106.59
2018-01-26T20:48:12.728Z,101107.25
2018-01-26T20:50:38.912Z,101108.11
2018-01-26T20:53:05.063Z,101112.98
2018-01-26T20:55:31.361Z,101105.41
2018-01-26T20:57:57.511Z,101116.26
2018-01-26T21:00:23.752Z,101113.70
2018-01-26T21:02:49.941Z,101113.89
2018-01-26T21:05:16.091Z,101117.36
2018-01-26T21:07:43.832Z,101112.50
2018-01-26T21:10:09.983Z,101111.09
2018-01-26T21:12:36.135Z,101112.45
2018-01-26T21:15:02.382Z,101123.05
2018-01-26T21:17:28.541Z,101120.97
2018-01-26T21:19:54.674Z,101125.36
2018-01-26T21:22:20.897Z,101126.35
2018-01-26T21:24:47.040Z,101131.20
2018-01-26T21:27:13.187Z,101133.13
2018-01-26T21:29:39.403Z,101137.84
2018-01-26T21:32:05.613Z,101138.95
2018-01-26T21:34:31.763Z,101141.96
2018-01-26T21:36:57.927Z,101142.84
2018-01-26T21:39:24.062Z,101138.06
2018-01-26T21:41:50.290Z,101145.72
2018-01-26T21:44:16.438Z,101143.28
2018-01-26T21:46:42.583Z,101142.28
2018-01-26T21:49:08.718Z,101144.50
2018-01-26T21:51:34.879Z,101142.61
2018-01-26T21:54:01.018Z,101148.25
2018-01-26T21:56:27.219Z,101146.45
2018-01-26T21:58:53.359Z,101146.30
2018-01-26T22:01:19.524Z,101142.53
2018-01-26T22:03:45.757Z,101148.41
2018-01-26T22:06:18.154Z,101149.88
2018-01-26T22:08:44.335Z,101149.78
2018-01-26T22:11:10.522Z,101145.52
2018-01-26T22:13:36.671Z,101145.39
2018-01-26T22:16:02.842Z,101145.84
2018-01-26T22:18:29.075Z,101145.58
2018-01-26T22:20:55.239Z,101143.80
2018-01-26T22:23:21.389Z,101138.59
2018-01-26T22:25:47.576Z,101147.42
2018-01-26T22:28:13.719Z,101138.88
2018-01-26T22:30:39.878Z,101136.53
2018-01-26T22:33:06.046Z,101139.45
2018-01-26T22:35:32.191Z,101149.09
2018-01-26T22:37:58.430Z,101143.20
2018-01-26T22:40:24.578Z,101138.94
2018-01-26T22:42:50.732Z,101141.14
2018-01-26T22:45:16.970Z,101150.95
2018-01-26T22:47:43.190Z,101155.66
2018-01-26T22:50:09.347Z,101159.25
2018-01-26T22:52:35.526Z,101153.38
2018-01-26T22:55:01.670Z,101162.78
2018-01-26T22:57:27.898Z,101162.96
2018-01-26T22:59:54.210Z,101163.31
2018-01-26T23:02:20.367Z,101161.56
2018-01-26T23:04:46.539Z,101166.48
2018-01-26T23:07:12.693Z,101165.84
2018-01-26T23:09:38.887Z,101160.89
2018-01-26T23:12:05.039Z,101159.05
2018-01-26T23:14:31.180Z,101166.13
2018-01-26T23:16:57.407Z,101165.00
2018-01-26T23:19:23.558Z,101162.90
2018-01-26T23:21:49.746Z,101164.36
2018-01-26T23:24:15.927Z,101155.34
2018-01-26T23:26:42.054Z,101155.23
2018-01-26T23:29:08.210Z,101151.09
2018-01-26T23:31:34.407Z,101149.42
2018-01-26T23:34:00.535Z,101154.11
2018-01-26T23:36:26.698Z,101147.86
2018-01-26T23:38:52.963Z,101148.61
2018-01-26T23:41:19.147Z,101143.89
2018-01-26T23:43:45.295Z,101148.41
2018-01-26T23:46:11.471Z,101154.39
2018-01-26T23:48:37.606Z,101160.92
2018-01-26T23:51:03.806Z,101155.92
2018-01-26T23:53:29.982Z,101157.50
2018-01-26T23:55:56.123Z,101160.68
2018-01-26T23:58:22.254Z,101160.20
